NCAR-RAP Real-Time Weather Data

Output produced by METARs form (06 May 2021  16:23 UTC)
found at http://weather.rap.ucar.edu/surface/
 
KCNU 061552Z AUTO 33014G20KT 10SM CLR 18/07 A3027 RMK AO2 SLP246 T01780072
KCNU 061452Z AUTO 34012G19KT 10SM CLR 17/08 A3026 RMK AO2 SLP243 T01720078 51023
KCNU 061352Z AUTO 35014G23KT 10SM CLR 15/09 A3024 RMK AO2 SLP238 T01500089
KCNU 061252Z AUTO 31010KT 10SM CLR 14/09 A3022 RMK AO2 SLP229 T01390089
KCNU 061152Z AUTO 30007KT 10SM CLR 11/08 A3019 RMK AO2 SLP219 T01110078 10128 20094 53009
KCNU 061052Z AUTO 29005KT 10SM CLR 11/08 A3017 RMK AO2 SLP212 T01060078
KCNU 060952Z AUTO 26005KT 10SM CLR 11/07 A3016 RMK AO2 SLP209 T01060072
KCNU 060852Z AUTO 24005KT 10SM CLR 11/07 A3016 RMK AO2 SLP209 T01110067 55001
KCNU 060752Z AUTO 21003KT 10SM CLR 11/06 A3015 RMK AO2 SLP207 T01060061
KCNU 060652Z AUTO 23004KT 10SM CLR 11/07 A3016 RMK AO2 SLP208 T01110067
KCNU 060552Z AUTO 21006KT 10SM CLR 13/07 A3017 RMK AO2 SLP210 T01280067 10194 20111 402170028 53002
KCNU 060452Z AUTO 19006KT 10SM CLR 13/07 A3015 RMK AO2 SLP206 T01330067
KCNU 060352Z AUTO 17006KT 10SM CLR 14/08 A3016 RMK AO2 SLP207 T01390078
KCNU 060252Z AUTO 19005KT 10SM CLR 13/09 A3016 RMK AO2 SLP208 T01330089 53013
KCNU 060152Z AUTO 00000KT 10SM CLR 13/08 A3013 RMK AO2 SLP200 T01280083